sensor_id;sensor_type;location;lat;lon;timestamp;P1;durP1;ratioP1;P2;durP2;ratioP2
77099;SDS011;66602;48.922;2.414;2023-07-02T00:00:33;40.38;;;17.05;;
77099;SDS011;66602;48.922;2.414;2023-07-02T00:03:00;39.30;;;16.98;;
77099;SDS011;66602;48.922;2.414;2023-07-02T00:05:26;48.65;;;20.98;;
77099;SDS011;66602;48.922;2.414;2023-07-02T00:10:43;63.08;;;24.33;;
77099;SDS011;66602;48.922;2.414;2023-07-02T00:13:08;47.40;;;20.17;;
77099;SDS011;66602;48.922;2.414;2023-07-02T00:15:34;42.25;;;17.27;;
77099;SDS011;66602;48.922;2.414;2023-07-02T00:18:00;59.35;;;25.67;;
77099;SDS011;66602;48.922;2.414;2023-07-02T00:20:25;40.33;;;17.05;;
77099;SDS011;66602;48.922;2.414;2023-07-02T00:22:51;37.10;;;15.10;;
77099;SDS011;66602;48.922;2.414;2023-07-02T00:25:16;49.05;;;16.67;;
77099;SDS011;66602;48.922;2.414;2023-07-02T00:31:00;38.97;;;16.02;;
77099;SDS011;66602;48.922;2.414;2023-07-02T00:33:27;39.47;;;16.88;;
77099;SDS011;66602;48.922;2.414;2023-07-02T00:35:54;39.17;;;16.67;;
77099;SDS011;66602;48.922;2.414;2023-07-02T00:38:19;43.42;;;17.67;;
77099;SDS011;66602;48.922;2.414;2023-07-02T00:40:45;53.47;;;17.35;;
77099;SDS011;66602;48.922;2.414;2023-07-02T00:43:11;41.67;;;17.63;;
77099;SDS011;66602;48.922;2.414;2023-07-02T00:45:41;41.47;;;18.25;;
77099;SDS011;66602;48.922;2.414;2023-07-02T00:48:06;47.15;;;17.63;;
77099;SDS011;66602;48.922;2.414;2023-07-02T00:53:38;32.97;;;17.02;;
77099;SDS011;66602;48.922;2.414;2023-07-02T00:56:04;53.22;;;18.65;;
77099;SDS011;66602;48.922;2.414;2023-07-02T00:58:29;41.17;;;17.20;;
77099;SDS011;66602;48.922;2.414;2023-07-02T01:00:56;50.20;;;19.90;;
77099;SDS011;66602;48.922;2.414;2023-07-02T01:03:21;40.10;;;18.42;;
77099;SDS011;66602;48.922;2.414;2023-07-02T01:05:47;48.58;;;22.27;;
77099;SDS011;66602;48.922;2.414;2023-07-02T01:08:12;55.30;;;20.35;;
77099;SDS011;66602;48.922;2.414;2023-07-02T01:10:39;59.75;;;21.88;;
77099;SDS011;66602;48.922;2.414;2023-07-02T01:13:09;59.83;;;24.67;;
77099;SDS011;66602;48.922;2.414;2023-07-02T01:15:41;56.92;;;22.08;;
77099;SDS011;66602;48.922;2.414;2023-07-02T01:18:08;55.42;;;22.77;;
77099;SDS011;66602;48.922;2.414;2023-07-02T01:20:34;60.88;;;22.95;;
77099;SDS011;66602;48.922;2.414;2023-07-02T01:23:00;55.30;;;22.63;;
77099;SDS011;66602;48.922;2.414;2023-07-02T01:25:28;58.42;;;23.20;;
77099;SDS011;66602;48.922;2.414;2023-07-02T01:27:54;58.80;;;22.90;;
77099;SDS011;66602;48.922;2.414;2023-07-02T01:30:20;48.05;;;21.65;;
77099;SDS011;66602;48.922;2.414;2023-07-02T01:32:46;45.53;;;18.80;;
77099;SDS011;66602;48.922;2.414;2023-07-02T01:35:11;47.65;;;19.33;;
77099;SDS011;66602;48.922;2.414;2023-07-02T01:37:37;40.75;;;18.92;;
77099;SDS011;66602;48.922;2.414;2023-07-02T01:40:03;46.88;;;19.10;;
77099;SDS011;66602;48.922;2.414;2023-07-02T01:42:33;52.33;;;19.95;;
77099;SDS011;66602;48.922;2.414;2023-07-02T01:44:59;43.75;;;17.88;;
77099;SDS011;66602;48.922;2.414;2023-07-02T01:47:24;54.53;;;19.88;;
77099;SDS011;66602;48.922;2.414;2023-07-02T01:49:50;55.67;;;20.73;;
77099;SDS011;66602;48.922;2.414;2023-07-02T01:52:16;41.65;;;19.17;;
77099;SDS011;66602;48.922;2.414;2023-07-02T01:54:42;40.40;;;17.60;;
77099;SDS011;66602;48.922;2.414;2023-07-02T01:57:09;54.80;;;18.08;;
77099;SDS011;66602;48.922;2.414;2023-07-02T01:59:35;46.85;;;17.05;;
77099;SDS011;66602;48.922;2.414;2023-07-02T02:02:01;43.17;;;16.77;;
77099;SDS011;66602;48.922;2.414;2023-07-02T02:04:27;38.10;;;16.42;;
77099;SDS011;66602;48.922;2.414;2023-07-02T02:06:53;58.78;;;17.30;;
77099;SDS011;66602;48.922;2.414;2023-07-02T02:09:19;48.17;;;16.77;;
77099;SDS011;66602;48.922;2.414;2023-07-02T02:11:47;42.97;;;15.93;;
77099;SDS011;66602;48.922;2.414;2023-07-02T02:14:15;47.03;;;16.90;;
77099;SDS011;66602;48.922;2.414;2023-07-02T02:16:41;37.35;;;15.38;;
77099;SDS011;66602;48.922;2.414;2023-07-02T02:19:10;39.70;;;16.77;;
77099;SDS011;66602;48.922;2.414;2023-07-02T02:21:37;47.55;;;17.10;;
77099;SDS011;66602;48.922;2.414;2023-07-02T02:24:02;43.60;;;16.73;;
77099;SDS011;66602;48.922;2.414;2023-07-02T02:26:29;46.47;;;16.27;;
77099;SDS011;66602;48.922;2.414;2023-07-02T02:28:57;42.95;;;16.80;;
77099;SDS011;66602;48.922;2.414;2023-07-02T02:31:23;34.83;;;14.45;;
77099;SDS011;66602;48.922;2.414;2023-07-02T02:33:48;38.40;;;15.93;;
77099;SDS011;66602;48.922;2.414;2023-07-02T02:36:14;38.83;;;15.60;;
77099;SDS011;66602;48.922;2.414;2023-07-02T02:38:40;48.65;;;16.10;;
77099;SDS011;66602;48.922;2.414;2023-07-02T02:44:15;43.83;;;15.75;;
77099;SDS011;66602;48.922;2.414;2023-07-02T02:46:40;53.40;;;15.55;;
77099;SDS011;66602;48.922;2.414;2023-07-02T02:49:05;55.03;;;17.80;;
77099;SDS011;66602;48.922;2.414;2023-07-02T02:51:31;48.80;;;15.73;;
77099;SDS011;66602;48.922;2.414;2023-07-02T02:53:56;45.78;;;16.50;;
77099;SDS011;66602;48.922;2.414;2023-07-02T02:56:22;44.47;;;15.77;;
77099;SDS011;66602;48.922;2.414;2023-07-02T02:58:47;46.22;;;15.45;;
77099;SDS011;66602;48.922;2.414;2023-07-02T03:01:13;48.95;;;16.80;;
77099;SDS011;66602;48.922;2.414;2023-07-02T03:03:40;47.42;;;15.82;;
77099;SDS011;66602;48.922;2.414;2023-07-02T03:06:09;47.67;;;16.45;;
77099;SDS011;66602;48.922;2.414;2023-07-02T03:08:35;42.30;;;14.88;;
77099;SDS011;66602;48.922;2.414;2023-07-02T03:11:01;47.58;;;16.35;;
77099;SDS011;66602;48.922;2.414;2023-07-02T03:13:26;44.45;;;15.82;;
77099;SDS011;66602;48.922;2.414;2023-07-02T03:15:52;43.45;;;15.23;;
77099;SDS011;66602;48.922;2.414;2023-07-02T03:18:17;44.30;;;15.88;;
77099;SDS011;66602;48.922;2.414;2023-07-02T03:20:43;45.90;;;15.35;;
77099;SDS011;66602;48.922;2.414;2023-07-02T03:23:08;29.65;;;14.30;;
77099;SDS011;66602;48.922;2.414;2023-07-02T03:25:34;45.40;;;15.15;;
77099;SDS011;66602;48.922;2.414;2023-07-02T03:27:59;45.72;;;15.90;;
77099;SDS011;66602;48.922;2.414;2023-07-02T03:30:25;42.78;;;16.48;;
77099;SDS011;66602;48.922;2.414;2023-07-02T03:32:50;42.85;;;16.80;;
77099;SDS011;66602;48.922;2.414;2023-07-02T03:35:15;42.95;;;15.32;;
77099;SDS011;66602;48.922;2.414;2023-07-02T03:37:41;45.30;;;16.90;;
77099;SDS011;66602;48.922;2.414;2023-07-02T03:40:08;41.92;;;16.05;;
77099;SDS011;66602;48.922;2.414;2023-07-02T03:42:34;44.75;;;15.23;;
77099;SDS011;66602;48.922;2.414;2023-07-02T03:45:00;38.13;;;15.30;;
77099;SDS011;66602;48.922;2.414;2023-07-02T03:47:25;45.40;;;14.50;;
77099;SDS011;66602;48.922;2.414;2023-07-02T03:49:51;60.30;;;17.08;;
77099;SDS011;66602;48.922;2.414;2023-07-02T03:52:16;50.50;;;16.35;;
77099;SDS011;66602;48.922;2.414;2023-07-02T03:54:42;37.20;;;14.65;;
77099;SDS011;66602;48.922;2.414;2023-07-02T03:57:07;39.08;;;14.18;;
77099;SDS011;66602;48.922;2.414;2023-07-02T03:59:33;42.85;;;14.48;;
77099;SDS011;66602;48.922;2.414;2023-07-02T04:01:59;36.30;;;13.43;;
77099;SDS011;66602;48.922;2.414;2023-07-02T04:04:25;44.38;;;14.68;;
77099;SDS011;66602;48.922;2.414;2023-07-02T04:06:50;41.35;;;15.15;;
77099;SDS011;66602;48.922;2.414;2023-07-02T04:09:16;31.42;;;13.23;;
77099;SDS011;66602;48.922;2.414;2023-07-02T04:11:43;41.97;;;14.20;;
77099;SDS011;66602;48.922;2.414;2023-07-02T04:14:09;43.67;;;14.00;;
77099;SDS011;66602;48.922;2.414;2023-07-02T04:16:34;39.40;;;14.25;;
77099;SDS011;66602;48.922;2.414;2023-07-02T04:18:59;49.92;;;14.90;;
77099;SDS011;66602;48.922;2.414;2023-07-02T04:21:25;38.83;;;13.73;;
77099;SDS011;66602;48.922;2.414;2023-07-02T04:23:51;33.78;;;14.35;;
77099;SDS011;66602;48.922;2.414;2023-07-02T04:26:16;41.55;;;13.55;;
77099;SDS011;66602;48.922;2.414;2023-07-02T04:28:42;42.38;;;13.90;;
77099;SDS011;66602;48.922;2.414;2023-07-02T04:31:08;42.67;;;13.82;;
77099;SDS011;66602;48.922;2.414;2023-07-02T04:33:34;35.45;;;13.55;;
77099;SDS011;66602;48.922;2.414;2023-07-02T04:36:01;34.80;;;13.65;;
77099;SDS011;66602;48.922;2.414;2023-07-02T04:38:28;38.03;;;12.95;;
77099;SDS011;66602;48.922;2.414;2023-07-02T04:40:53;35.13;;;13.30;;
77099;SDS011;66602;48.922;2.414;2023-07-02T04:43:22;40.03;;;12.70;;
77099;SDS011;66602;48.922;2.414;2023-07-02T04:45:48;29.50;;;13.73;;
77099;SDS011;66602;48.922;2.414;2023-07-02T04:48:14;34.80;;;12.95;;
77099;SDS011;66602;48.922;2.414;2023-07-02T04:50:41;38.75;;;13.00;;
77099;SDS011;66602;48.922;2.414;2023-07-02T04:53:07;28.25;;;11.70;;
77099;SDS011;66602;48.922;2.414;2023-07-02T04:55:32;37.30;;;12.93;;
77099;SDS011;66602;48.922;2.414;2023-07-02T04:57:57;35.63;;;13.10;;
77099;SDS011;66602;48.922;2.414;2023-07-02T05:00:23;31.25;;;12.65;;
77099;SDS011;66602;48.922;2.414;2023-07-02T05:02:49;39.47;;;13.07;;
77099;SDS011;66602;48.922;2.414;2023-07-02T05:05:14;30.73;;;12.55;;
77099;SDS011;66602;48.922;2.414;2023-07-02T05:07:40;39.85;;;12.57;;
77099;SDS011;66602;48.922;2.414;2023-07-02T05:10:06;34.78;;;13.00;;
77099;SDS011;66602;48.922;2.414;2023-07-02T05:12:32;29.83;;;11.80;;
77099;SDS011;66602;48.922;2.414;2023-07-02T05:14:57;32.83;;;12.40;;
77099;SDS011;66602;48.922;2.414;2023-07-02T05:17:22;31.30;;;12.25;;
77099;SDS011;66602;48.922;2.414;2023-07-02T05:19:48;40.10;;;12.48;;
77099;SDS011;66602;48.922;2.414;2023-07-02T05:22:13;34.83;;;12.73;;
77099;SDS011;66602;48.922;2.414;2023-07-02T05:24:39;33.38;;;13.20;;
77099;SDS011;66602;48.922;2.414;2023-07-02T05:27:06;33.42;;;12.70;;
77099;SDS011;66602;48.922;2.414;2023-07-02T05:29:31;34.15;;;13.05;;
77099;SDS011;66602;48.922;2.414;2023-07-02T05:31:57;31.08;;;12.27;;
77099;SDS011;66602;48.922;2.414;2023-07-02T05:34:22;37.88;;;13.02;;
77099;SDS011;66602;48.922;2.414;2023-07-02T05:36:47;40.40;;;12.73;;
77099;SDS011;66602;48.922;2.414;2023-07-02T05:39:13;36.03;;;12.40;;
77099;SDS011;66602;48.922;2.414;2023-07-02T05:41:39;43.00;;;13.32;;
77099;SDS011;66602;48.922;2.414;2023-07-02T05:44:04;38.83;;;12.77;;
77099;SDS011;66602;48.922;2.414;2023-07-02T05:46:30;33.08;;;12.45;;
77099;SDS011;66602;48.922;2.414;2023-07-02T05:48:55;37.92;;;12.45;;
77099;SDS011;66602;48.922;2.414;2023-07-02T05:51:22;31.92;;;11.43;;
77099;SDS011;66602;48.922;2.414;2023-07-02T05:53:50;35.63;;;13.10;;
77099;SDS011;66602;48.922;2.414;2023-07-02T05:56:17;38.30;;;12.23;;
77099;SDS011;66602;48.922;2.414;2023-07-02T05:58:43;31.13;;;11.27;;
77099;SDS011;66602;48.922;2.414;2023-07-02T06:01:10;35.33;;;11.73;;
77099;SDS011;66602;48.922;2.414;2023-07-02T06:03:35;36.78;;;12.18;;
77099;SDS011;66602;48.922;2.414;2023-07-02T06:06:02;39.33;;;12.93;;
77099;SDS011;66602;48.922;2.414;2023-07-02T06:08:28;39.53;;;12.23;;
77099;SDS011;66602;48.922;2.414;2023-07-02T06:10:53;35.40;;;11.48;;
77099;SDS011;66602;48.922;2.414;2023-07-02T06:13:19;23.23;;;12.27;;
77099;SDS011;66602;48.922;2.414;2023-07-02T06:15:44;41.08;;;12.57;;
77099;SDS011;66602;48.922;2.414;2023-07-02T06:18:12;29.45;;;11.07;;
77099;SDS011;66602;48.922;2.414;2023-07-02T06:20:37;27.33;;;11.52;;
77099;SDS011;66602;48.922;2.414;2023-07-02T06:23:03;33.28;;;12.10;;
77099;SDS011;66602;48.922;2.414;2023-07-02T06:25:28;32.67;;;11.55;;
77099;SDS011;66602;48.922;2.414;2023-07-02T06:27:54;29.58;;;12.35;;
77099;SDS011;66602;48.922;2.414;2023-07-02T06:30:23;30.92;;;11.70;;
77099;SDS011;66602;48.922;2.414;2023-07-02T06:32:51;42.72;;;12.30;;
77099;SDS011;66602;48.922;2.414;2023-07-02T06:35:17;32.65;;;11.73;;
77099;SDS011;66602;48.922;2.414;2023-07-02T06:37:42;28.92;;;11.55;;
77099;SDS011;66602;48.922;2.414;2023-07-02T06:40:09;31.08;;;12.15;;
77099;SDS011;66602;48.922;2.414;2023-07-02T06:42:34;32.40;;;12.68;;
77099;SDS011;66602;48.922;2.414;2023-07-02T06:45:01;39.05;;;12.23;;
77099;SDS011;66602;48.922;2.414;2023-07-02T06:47:27;37.80;;;12.50;;
77099;SDS011;66602;48.922;2.414;2023-07-02T06:49:52;32.88;;;12.68;;
77099;SDS011;66602;48.922;2.414;2023-07-02T06:52:18;34.20;;;11.50;;
77099;SDS011;66602;48.922;2.414;2023-07-02T06:54:44;38.58;;;11.60;;
77099;SDS011;66602;48.922;2.414;2023-07-02T06:57:09;40.83;;;12.10;;
77099;SDS011;66602;48.922;2.414;2023-07-02T06:59:35;32.10;;;11.95;;
77099;SDS011;66602;48.922;2.414;2023-07-02T07:02:01;29.70;;;11.15;;
77099;SDS011;66602;48.922;2.414;2023-07-02T07:04:27;28.92;;;11.20;;
77099;SDS011;66602;48.922;2.414;2023-07-02T07:06:53;33.63;;;12.32;;
77099;SDS011;66602;48.922;2.414;2023-07-02T07:09:20;22.27;;;10.88;;
77099;SDS011;66602;48.922;2.414;2023-07-02T07:11:46;24.73;;;10.65;;
77099;SDS011;66602;48.922;2.414;2023-07-02T07:14:11;40.17;;;11.55;;
77099;SDS011;66602;48.922;2.414;2023-07-02T07:16:37;30.10;;;11.25;;
77099;SDS011;66602;48.922;2.414;2023-07-02T07:19:02;32.33;;;11.95;;
77099;SDS011;66602;48.922;2.414;2023-07-02T07:21:28;26.98;;;11.57;;
77099;SDS011;66602;48.922;2.414;2023-07-02T07:23:54;32.65;;;12.10;;
77099;SDS011;66602;48.922;2.414;2023-07-02T07:26:19;27.20;;;10.30;;
77099;SDS011;66602;48.922;2.414;2023-07-02T07:28:45;33.70;;;12.98;;
77099;SDS011;66602;48.922;2.414;2023-07-02T07:31:10;26.60;;;11.00;;
77099;SDS011;66602;48.922;2.414;2023-07-02T07:33:36;33.13;;;11.82;;
77099;SDS011;66602;48.922;2.414;2023-07-02T07:36:01;34.47;;;12.25;;
77099;SDS011;66602;48.922;2.414;2023-07-02T07:38:27;30.50;;;11.85;;
77099;SDS011;66602;48.922;2.414;2023-07-02T07:40:54;25.35;;;11.35;;
77099;SDS011;66602;48.922;2.414;2023-07-02T07:43:20;24.67;;;12.13;;
77099;SDS011;66602;48.922;2.414;2023-07-02T07:45:46;27.13;;;11.32;;
77099;SDS011;66602;48.922;2.414;2023-07-02T07:48:11;29.08;;;12.05;;
77099;SDS011;66602;48.922;2.414;2023-07-02T07:50:36;28.55;;;13.02;;
77099;SDS011;66602;48.922;2.414;2023-07-02T07:53:02;26.23;;;10.88;;
77099;SDS011;66602;48.922;2.414;2023-07-02T07:55:28;27.52;;;11.88;;
77099;SDS011;66602;48.922;2.414;2023-07-02T07:57:53;33.05;;;14.73;;
77099;SDS011;66602;48.922;2.414;2023-07-02T08:00:19;24.42;;;11.32;;
77099;SDS011;66602;48.922;2.414;2023-07-02T08:02:45;40.28;;;12.70;;
77099;SDS011;66602;48.922;2.414;2023-07-02T08:05:12;36.70;;;12.40;;
77099;SDS011;66602;48.922;2.414;2023-07-02T08:07:38;28.45;;;11.57;;
77099;SDS011;66602;48.922;2.414;2023-07-02T08:10:05;29.65;;;12.00;;
77099;SDS011;66602;48.922;2.414;2023-07-02T08:12:32;29.85;;;12.65;;
77099;SDS011;66602;48.922;2.414;2023-07-02T08:14:58;23.23;;;11.57;;
77099;SDS011;66602;48.922;2.414;2023-07-02T08:17:23;27.05;;;11.50;;
77099;SDS011;66602;48.922;2.414;2023-07-02T08:19:49;28.30;;;10.50;;
77099;SDS011;66602;48.922;2.414;2023-07-02T08:22:14;31.92;;;11.07;;
77099;SDS011;66602;48.922;2.414;2023-07-02T08:24:40;27.85;;;10.93;;
77099;SDS011;66602;48.922;2.414;2023-07-02T08:27:05;33.13;;;12.20;;
77099;SDS011;66602;48.922;2.414;2023-07-02T08:29:31;32.90;;;11.63;;
77099;SDS011;66602;48.922;2.414;2023-07-02T08:31:57;31.55;;;13.05;;
77099;SDS011;66602;48.922;2.414;2023-07-02T08:34:23;26.02;;;11.95;;
77099;SDS011;66602;48.922;2.414;2023-07-02T08:36:48;22.70;;;11.30;;
77099;SDS011;66602;48.922;2.414;2023-07-02T08:39:14;25.35;;;12.27;;
77099;SDS011;66602;48.922;2.414;2023-07-02T08:41:44;21.42;;;11.45;;
77099;SDS011;66602;48.922;2.414;2023-07-02T08:44:14;26.50;;;13.07;;
77099;SDS011;66602;48.922;2.414;2023-07-02T08:46:44;22.83;;;10.88;;
77099;SDS011;66602;48.922;2.414;2023-07-02T08:49:11;27.90;;;11.45;;
77099;SDS011;66602;48.922;2.414;2023-07-02T08:51:37;25.88;;;11.27;;
77099;SDS011;66602;48.922;2.414;2023-07-02T08:54:03;29.05;;;10.20;;
77099;SDS011;66602;48.922;2.414;2023-07-02T08:56:29;22.02;;;11.13;;
77099;SDS011;66602;48.922;2.414;2023-07-02T08:58:54;24.77;;;11.60;;
77099;SDS011;66602;48.922;2.414;2023-07-02T09:01:20;21.25;;;11.20;;
77099;SDS011;66602;48.922;2.414;2023-07-02T09:03:46;18.80;;;10.90;;
77099;SDS011;66602;48.922;2.414;2023-07-02T09:06:11;26.02;;;11.18;;
77099;SDS011;66602;48.922;2.414;2023-07-02T09:08:37;19.30;;;10.73;;
77099;SDS011;66602;48.922;2.414;2023-07-02T09:11:07;21.40;;;11.52;;
77099;SDS011;66602;48.922;2.414;2023-07-02T09:19:07;21.83;;;11.00;;
77099;SDS011;66602;48.922;2.414;2023-07-02T09:21:41;19.15;;;9.60;;
77099;SDS011;66602;48.922;2.414;2023-07-02T09:24:19;21.70;;;10.35;;
77099;SDS011;66602;48.922;2.414;2023-07-02T09:26:46;17.52;;;9.70;;
77099;SDS011;66602;48.922;2.414;2023-07-02T09:29:18;17.50;;;9.10;;
77099;SDS011;66602;48.922;2.414;2023-07-02T09:31:48;16.60;;;9.55;;
77099;SDS011;66602;48.922;2.414;2023-07-02T09:34:14;20.10;;;9.85;;
77099;SDS011;66602;48.922;2.414;2023-07-02T09:36:40;16.33;;;9.63;;
77099;SDS011;66602;48.922;2.414;2023-07-02T09:39:13;20.48;;;10.90;;
77099;SDS011;66602;48.922;2.414;2023-07-02T09:44:08;21.17;;;9.88;;
77099;SDS011;66602;48.922;2.414;2023-07-02T09:46:36;23.23;;;10.10;;
77099;SDS011;66602;48.922;2.414;2023-07-02T09:49:05;29.67;;;12.32;;
77099;SDS011;66602;48.922;2.414;2023-07-02T09:51:33;29.67;;;10.55;;
77099;SDS011;66602;48.922;2.414;2023-07-02T09:53:58;25.38;;;11.38;;
77099;SDS011;66602;48.922;2.414;2023-07-02T09:56:26;28.08;;;11.25;;
77099;SDS011;66602;48.922;2.414;2023-07-02T09:58:52;25.15;;;10.70;;
77099;SDS011;66602;48.922;2.414;2023-07-02T10:01:17;23.35;;;10.52;;
77099;SDS011;66602;48.922;2.414;2023-07-02T10:03:43;21.90;;;10.70;;
77099;SDS011;66602;48.922;2.414;2023-07-02T10:06:08;21.50;;;10.68;;
77099;SDS011;66602;48.922;2.414;2023-07-02T10:08:34;20.77;;;10.52;;
77099;SDS011;66602;48.922;2.414;2023-07-02T10:11:10;23.20;;;9.85;;
77099;SDS011;66602;48.922;2.414;2023-07-02T10:13:39;22.50;;;12.63;;
77099;SDS011;66602;48.922;2.414;2023-07-02T10:16:05;22.27;;;11.32;;
77099;SDS011;66602;48.922;2.414;2023-07-02T10:18:31;19.40;;;9.90;;
77099;SDS011;66602;48.922;2.414;2023-07-02T10:20:57;23.38;;;10.55;;
77099;SDS011;66602;48.922;2.414;2023-07-02T10:23:32;19.55;;;9.43;;
77099;SDS011;66602;48.922;2.414;2023-07-02T10:26:09;16.38;;;9.85;;
77099;SDS011;66602;48.922;2.414;2023-07-02T10:28:35;16.90;;;9.80;;
77099;SDS011;66602;48.922;2.414;2023-07-02T10:31:01;20.98;;;10.05;;
77099;SDS011;66602;48.922;2.414;2023-07-02T10:33:26;19.58;;;9.25;;
77099;SDS011;66602;48.922;2.414;2023-07-02T10:35:52;17.85;;;9.20;;
77099;SDS011;66602;48.922;2.414;2023-07-02T10:38:18;14.65;;;9.82;;
77099;SDS011;66602;48.922;2.414;2023-07-02T10:40:45;21.60;;;9.25;;
77099;SDS011;66602;48.922;2.414;2023-07-02T10:43:11;18.08;;;9.93;;
77099;SDS011;66602;48.922;2.414;2023-07-02T10:45:37;21.75;;;9.77;;
77099;SDS011;66602;48.922;2.414;2023-07-02T10:48:03;16.98;;;9.85;;
77099;SDS011;66602;48.922;2.414;2023-07-02T10:50:38;17.40;;;9.70;;
77099;SDS011;66602;48.922;2.414;2023-07-02T10:53:03;15.38;;;9.00;;
77099;SDS011;66602;48.922;2.414;2023-07-02T10:55:30;19.73;;;10.02;;
77099;SDS011;66602;48.922;2.414;2023-07-02T10:58:03;24.48;;;11.02;;
77099;SDS011;66602;48.922;2.414;2023-07-02T11:00:30;20.50;;;9.93;;
77099;SDS011;66602;48.922;2.414;2023-07-02T11:02:56;19.05;;;8.85;;
77099;SDS011;66602;48.922;2.414;2023-07-02T11:05:21;20.92;;;9.38;;
77099;SDS011;66602;48.922;2.414;2023-07-02T11:07:47;17.38;;;9.65;;
77099;SDS011;66602;48.922;2.414;2023-07-02T11:10:19;15.10;;;9.30;;
77099;SDS011;66602;48.922;2.414;2023-07-02T11:12:44;16.50;;;9.10;;
77099;SDS011;66602;48.922;2.414;2023-07-02T11:15:11;19.25;;;8.70;;
77099;SDS011;66602;48.922;2.414;2023-07-02T11:17:37;13.05;;;8.93;;
77099;SDS011;66602;48.922;2.414;2023-07-02T11:20:07;16.70;;;9.10;;
77099;SDS011;66602;48.922;2.414;2023-07-02T11:22:34;15.80;;;8.50;;
77099;SDS011;66602;48.922;2.414;2023-07-02T11:25:13;19.55;;;9.18;;
77099;SDS011;66602;48.922;2.414;2023-07-02T11:27:43;16.50;;;9.30;;
77099;SDS011;66602;48.922;2.414;2023-07-02T11:30:09;13.55;;;8.27;;
77099;SDS011;66602;48.922;2.414;2023-07-02T11:35:15;10.55;;;8.80;;
77099;SDS011;66602;48.922;2.414;2023-07-02T11:37:41;14.30;;;8.80;;
77099;SDS011;66602;48.922;2.414;2023-07-02T11:40:07;13.30;;;8.85;;
77099;SDS011;66602;48.922;2.414;2023-07-02T11:42:33;20.23;;;9.52;;
77099;SDS011;66602;48.922;2.414;2023-07-02T11:44:59;19.60;;;8.77;;
77099;SDS011;66602;48.922;2.414;2023-07-02T11:47:24;17.20;;;8.98;;
77099;SDS011;66602;48.922;2.414;2023-07-02T11:49:52;16.73;;;8.45;;
77099;SDS011;66602;48.922;2.414;2023-07-02T11:52:18;19.30;;;10.05;;
77099;SDS011;66602;48.922;2.414;2023-07-02T11:54:43;22.90;;;11.05;;
77099;SDS011;66602;48.922;2.414;2023-07-02T11:57:08;18.40;;;8.40;;
77099;SDS011;66602;48.922;2.414;2023-07-02T11:59:34;15.88;;;8.52;;
77099;SDS011;66602;48.922;2.414;2023-07-02T12:02:01;23.98;;;9.07;;
77099;SDS011;66602;48.922;2.414;2023-07-02T12:04:27;14.38;;;9.02;;
77099;SDS011;66602;48.922;2.414;2023-07-02T12:06:52;16.23;;;8.73;;
77099;SDS011;66602;48.922;2.414;2023-07-02T12:09:18;18.95;;;9.45;;
77099;SDS011;66602;48.922;2.414;2023-07-02T12:11:43;14.90;;;8.85;;
77099;SDS011;66602;48.922;2.414;2023-07-02T12:14:10;12.32;;;8.73;;
77099;SDS011;66602;48.922;2.414;2023-07-02T12:16:36;13.45;;;8.85;;
77099;SDS011;66602;48.922;2.414;2023-07-02T12:19:01;13.85;;;8.57;;
77099;SDS011;66602;48.922;2.414;2023-07-02T12:21:26;15.02;;;8.20;;
77099;SDS011;66602;48.922;2.414;2023-07-02T12:23:52;18.15;;;8.20;;
77099;SDS011;66602;48.922;2.414;2023-07-02T12:26:17;15.98;;;10.05;;
77099;SDS011;66602;48.922;2.414;2023-07-02T12:28:43;13.90;;;9.27;;
77099;SDS011;66602;48.922;2.414;2023-07-02T12:31:08;11.35;;;8.57;;
77099;SDS011;66602;48.922;2.414;2023-07-02T12:33:35;19.10;;;9.45;;
77099;SDS011;66602;48.922;2.414;2023-07-02T12:36:00;14.50;;;8.65;;
77099;SDS011;66602;48.922;2.414;2023-07-02T12:38:26;9.85;;;8.30;;
77099;SDS011;66602;48.922;2.414;2023-07-02T12:40:51;15.85;;;8.38;;
77099;SDS011;66602;48.922;2.414;2023-07-02T12:43:17;18.60;;;9.27;;
77099;SDS011;66602;48.922;2.414;2023-07-02T12:45:42;23.35;;;9.30;;
77099;SDS011;66602;48.922;2.414;2023-07-02T12:48:08;10.30;;;7.88;;
77099;SDS011;66602;48.922;2.414;2023-07-02T12:50:34;30.05;;;8.30;;
77099;SDS011;66602;48.922;2.414;2023-07-02T12:53:02;15.50;;;7.38;;
77099;SDS011;66602;48.922;2.414;2023-07-02T12:55:27;12.13;;;8.23;;
77099;SDS011;66602;48.922;2.414;2023-07-02T12:57:53;11.80;;;8.10;;
77099;SDS011;66602;48.922;2.414;2023-07-02T13:00:18;10.43;;;7.72;;
77099;SDS011;66602;48.922;2.414;2023-07-02T13:02:44;16.65;;;8.23;;
77099;SDS011;66602;48.922;2.414;2023-07-02T13:05:11;12.43;;;7.93;;
77099;SDS011;66602;48.922;2.414;2023-07-02T13:07:37;12.52;;;8.30;;
77099;SDS011;66602;48.922;2.414;2023-07-02T13:10:02;18.27;;;7.78;;
77099;SDS011;66602;48.922;2.414;2023-07-02T13:12:29;12.57;;;7.25;;
77099;SDS011;66602;48.922;2.414;2023-07-02T13:14:54;16.63;;;8.23;;
77099;SDS011;66602;48.922;2.414;2023-07-02T13:17:19;11.85;;;7.68;;
77099;SDS011;66602;48.922;2.414;2023-07-02T13:19:45;11.10;;;7.45;;
77099;SDS011;66602;48.922;2.414;2023-07-02T13:22:11;12.55;;;7.35;;
77099;SDS011;66602;48.922;2.414;2023-07-02T13:24:36;12.73;;;7.72;;
77099;SDS011;66602;48.922;2.414;2023-07-02T13:27:02;19.00;;;8.05;;
77099;SDS011;66602;48.922;2.414;2023-07-02T13:29:30;20.83;;;7.93;;
77099;SDS011;66602;48.922;2.414;2023-07-02T13:31:56;14.23;;;7.65;;
77099;SDS011;66602;48.922;2.414;2023-07-02T13:34:21;10.00;;;7.30;;
77099;SDS011;66602;48.922;2.414;2023-07-02T13:36:47;15.40;;;7.13;;
77099;SDS011;66602;48.922;2.414;2023-07-02T13:39:12;14.25;;;7.53;;
77099;SDS011;66602;48.922;2.414;2023-07-02T13:41:38;12.75;;;7.10;;
77099;SDS011;66602;48.922;2.414;2023-07-02T13:44:03;14.73;;;7.03;;
77099;SDS011;66602;48.922;2.414;2023-07-02T13:46:29;11.60;;;6.55;;
77099;SDS011;66602;48.922;2.414;2023-07-02T13:48:54;16.17;;;7.15;;
77099;SDS011;66602;48.922;2.414;2023-07-02T13:51:20;12.95;;;6.95;;
77099;SDS011;66602;48.922;2.414;2023-07-02T13:53:45;13.15;;;8.93;;
77099;SDS011;66602;48.922;2.414;2023-07-02T13:56:11;9.63;;;6.68;;
77099;SDS011;66602;48.922;2.414;2023-07-02T14:01:20;10.65;;;6.45;;
77099;SDS011;66602;48.922;2.414;2023-07-02T14:03:45;14.60;;;7.20;;
77099;SDS011;66602;48.922;2.414;2023-07-02T14:06:11;12.75;;;7.05;;
77099;SDS011;66602;48.922;2.414;2023-07-02T14:08:36;18.90;;;7.03;;
77099;SDS011;66602;48.922;2.414;2023-07-02T14:11:02;19.88;;;7.28;;
77099;SDS011;66602;48.922;2.414;2023-07-02T14:13:27;10.50;;;6.57;;
77099;SDS011;66602;48.922;2.414;2023-07-02T14:15:53;10.43;;;6.88;;
77099;SDS011;66602;48.922;2.414;2023-07-02T14:18:18;15.85;;;6.32;;
77099;SDS011;66602;48.922;2.414;2023-07-02T14:20:44;11.10;;;6.45;;
77099;SDS011;66602;48.922;2.414;2023-07-02T14:23:09;14.30;;;6.32;;
77099;SDS011;66602;48.922;2.414;2023-07-02T14:25:35;11.25;;;7.25;;
77099;SDS011;66602;48.922;2.414;2023-07-02T14:28:00;19.50;;;6.95;;
77099;SDS011;66602;48.922;2.414;2023-07-02T14:30:27;13.70;;;6.85;;
77099;SDS011;66602;48.922;2.414;2023-07-02T14:32:52;15.68;;;9.40;;
77099;SDS011;66602;48.922;2.414;2023-07-02T14:35:18;11.73;;;7.35;;
77099;SDS011;66602;48.922;2.414;2023-07-02T14:37:47;30.55;;;7.80;;
77099;SDS011;66602;48.922;2.414;2023-07-02T14:40:12;17.38;;;7.43;;
77099;SDS011;66602;48.922;2.414;2023-07-02T14:42:39;13.48;;;6.60;;
77099;SDS011;66602;48.922;2.414;2023-07-02T14:45:05;10.02;;;7.18;;